Stafford, Virginia
Current Conditions -  °F | °C
As of 1:55 PM on Friday 24 Oct 2014 (Local Time) from KRMN Reporting Station
Clear Clear  
Wind Chill: 64°   Ceiling: Unl
Heat Index: 64°   Visibility: 10mi
Dew Point: 39°   Wind: 10mph
Humidity: 41%   Direction: 330°NNW
Pressure: 29.98"   Gusts: NA
Location:  38.42°N, 77.41°W
Report Text: KRMN 241755Z AUTO 33009KT 10SM CLR 18/04 A2998 RMK AO2 T01760041 10182 20106
Loading
Personal Weather Stations






























Interactive Weather Map
Tropical Storm Tracking
New forecast layout! Learn more

10-Day Weather Forecast

Advertisements
Track Severe Weather on mobile